Time;durP1;ratioP1;P1;durP2;ratioP2;P2;SDS_P1;SDS_P2;PMS_P1;PMS_P2;Temp;Humidity;BMP_temperature;BMP_pressure;BME280_temperature;BME280_humidity;BME280_pressure;Samples;Min_cycle;Max_cycle;Signal;HPM_P1;HPM_P2
2022/12/10 00:01:25;;;;;;;11.70;9.75;;;3.70;99.90;;;;;;5053231;28;20142;-68
2022/12/10 00:03:51;;;;;;;10.75;8.82;;;3.70;99.90;;;;;;5052858;28;20059;-69
2022/12/10 00:06:22;;;;;;;10.35;8.45;;;3.70;99.90;;;;;;5052876;28;20462;-67
2022/12/10 00:08:49;;;;;;;11.13;8.45;;;3.70;99.90;;;;;;5053180;28;20033;-68
2022/12/10 00:11:16;;;;;;;11.18;9.25;;;3.60;99.90;;;;;;5053252;28;20112;-68
2022/12/10 00:13:43;;;;;;;13.48;9.07;;;3.70;99.90;;;;;;5052588;28;20024;-68
2022/12/10 00:16:12;;;;;;;13.50;9.88;;;3.70;99.90;;;;;;5052759;28;20322;-68
2022/12/10 00:18:38;;;;;;;12.60;9.88;;;3.70;99.90;;;;;;5052450;28;20087;-68
2022/12/10 00:21:11;;;;;;;12.60;10.27;;;3.80;99.90;;;;;;5052613;28;20406;-69
2022/12/10 00:23:37;;;;;;;11.63;9.15;;;3.80;99.90;;;;;;5052345;28;20109;-68
2022/12/10 00:26:12;;;;;;;11.50;9.32;;;3.80;99.90;;;;;;5052365;28;20048;-68
2022/12/10 00:28:38;;;;;;;11.30;8.88;;;3.80;99.90;;;;;;5051025;28;20029;-67
2022/12/10 00:31:05;;;;;;;10.55;8.43;;;3.80;99.90;;;;;;5052781;28;20055;-68
2022/12/10 00:33:31;;;;;;;10.60;8.82;;;3.80;99.90;;;;;;5052177;28;20033;-69
2022/12/10 00:36:04;;;;;;;10.80;8.50;;;3.80;99.90;;;;;;5052518;28;20120;-69
2022/12/10 00:38:30;;;;;;;11.15;8.90;;;3.80;99.90;;;;;;5052206;28;20036;-69
2022/12/10 00:40:55;;;;;;;9.77;7.85;;;3.80;99.90;;;;;;5052301;28;20111;-69
2022/12/10 00:43:21;;;;;;;8.35;7.20;;;3.80;99.90;;;;;;5052992;28;20062;-68
2022/12/10 00:45:47;;;;;;;8.57;7.30;;;3.80;99.90;;;;;;5052046;28;20028;-69
2022/12/10 00:48:12;;;;;;;8.95;7.43;;;3.80;99.90;;;;;;5052511;28;20021;-68
2022/12/10 00:50:38;;;;;;;9.65;7.72;;;3.80;99.90;;;;;;5051798;28;20104;-69
2022/12/10 00:53:03;;;;;;;8.68;7.72;;;3.80;99.90;;;;;;5051979;28;20039;-69
2022/12/10 00:55:29;;;;;;;9.57;7.70;;;3.80;99.90;;;;;;5051807;28;20025;-69
2022/12/10 00:57:54;;;;;;;9.27;7.85;;;3.80;99.90;;;;;;5052321;28;20027;-68
2022/12/10 01:00:20;;;;;;;8.68;7.30;;;3.70;99.90;;;;;;5052371;28;20029;-68
2022/12/10 01:02:46;;;;;;;9.63;7.63;;;3.70;99.90;;;;;;5051824;28;20029;-68
2022/12/10 01:05:12;;;;;;;9.25;7.88;;;3.70;99.90;;;;;;5052187;28;20021;-68
2022/12/10 01:07:37;;;;;;;11.35;8.52;;;3.70;99.90;;;;;;5051732;28;20385;-68
2022/12/10 01:10:03;;;;;;;11.10;8.68;;;3.70;99.90;;;;;;5052186;28;20107;-68
2022/12/10 01:12:29;;;;;;;11.20;8.20;;;3.80;99.90;;;;;;5051663;28;20116;-68
2022/12/10 01:14:54;;;;;;;10.90;8.15;;;3.80;99.90;;;;;;5052425;28;20096;-68
2022/12/10 01:17:21;;;;;;;11.38;9.23;;;3.80;99.90;;;;;;5052325;28;20031;-68
2022/12/10 01:19:47;;;;;;;12.95;9.20;;;3.80;99.90;;;;;;5051528;28;20051;-68
2022/12/10 01:22:12;;;;;;;9.77;8.05;;;3.80;99.90;;;;;;5051793;28;20112;-68
2022/12/10 01:24:38;;;;;;;11.10;9.35;;;3.80;99.90;;;;;;5051404;28;20454;-67
2022/12/10 01:27:04;;;;;;;11.27;8.02;;;3.70;99.90;;;;;;5051111;28;20028;-67
2022/12/10 01:29:29;;;;;;;9.27;7.22;;;3.80;99.90;;;;;;5049835;28;20029;-68
2022/12/10 01:31:56;;;;;;;9.95;8.23;;;3.80;99.90;;;;;;5051797;28;20178;-68
2022/12/10 01:34:23;;;;;;;9.02;7.88;;;3.80;99.90;;;;;;5051782;28;20075;-67
2022/12/10 01:36:51;;;;;;;11.70;8.80;;;3.80;99.90;;;;;;5049586;28;20725;-67
2022/12/10 01:39:19;;;;;;;11.52;8.43;;;3.80;99.90;;;;;;5055388;28;20143;-67
2022/12/10 01:41:49;;;;;;;9.68;7.78;;;3.80;99.90;;;;;;5055314;28;20021;-68
2022/12/10 01:44:15;;;;;;;10.30;7.97;;;3.80;99.90;;;;;;5056051;28;20083;-67
2022/12/10 01:46:46;;;;;;;12.02;7.88;;;3.80;99.90;;;;;;5055330;28;20028;-67
2022/12/10 01:49:25;;;;;;;9.88;8.10;;;3.80;99.90;;;;;;5055562;28;20422;-67
2022/12/10 01:51:54;;;;;;;8.88;7.40;;;3.80;99.90;;;;;;5055096;28;20497;-67
2022/12/10 01:54:30;;;;;;;9.50;7.85;;;3.90;99.90;;;;;;5055620;28;20031;-67
2022/12/10 01:57:00;;;;;;;9.40;7.95;;;3.90;99.90;;;;;;5054812;28;20025;-67
2022/12/10 01:59:26;;;;;;;10.30;7.43;;;3.90;99.90;;;;;;5055470;28;20032;-67
2022/12/10 02:01:58;;;;;;;10.43;7.55;;;3.90;99.90;;;;;;5054975;28;20029;-67
2022/12/10 02:04:49;;;;;;;9.55;7.32;;;3.90;99.90;;;;;;5055791;28;20492;-67
2022/12/10 02:07:15;;;;;;;;;;;3.90;99.90;;;;;;5055888;28;20033;-67
2022/12/10 02:10:11;;;;;;;9.80;6.47;;;3.90;99.90;;;;;;5054773;28;19915;-67
2022/12/10 02:12:53;;;;;;;11.13;7.60;;;4.00;99.90;;;;;;5054919;28;20028;-68
2022/12/10 02:15:24;;;;;;;9.50;7.57;;;4.00;99.90;;;;;;5055050;28;20029;-67
2022/12/10 02:18:08;;;;;;;9.65;7.15;;;3.90;99.90;;;;;;5054712;28;20029;-67
2022/12/10 02:20:56;;;;;;;9.80;7.97;;;3.90;99.90;;;;;;5055018;28;20472;-67
2022/12/10 02:23:38;;;;;;;11.65;7.97;;;3.90;99.90;;;;;;5055010;28;20469;-67
2022/12/10 02:26:31;;;;;;;11.23;7.65;;;4.00;99.90;;;;;;5054800;28;20335;-67
2022/12/10 02:29:18;;;;;;;9.98;7.82;;;4.00;99.90;;;;;;5054196;28;20029;-68
2022/12/10 02:31:53;;;;;;;9.88;7.72;;;4.00;99.90;;;;;;5054692;28;20037;-68
2022/12/10 02:34:21;;;;;;;9.95;7.53;;;4.00;99.90;;;;;;5054969;28;20082;-68
2022/12/10 02:36:50;;;;;;;10.27;7.82;;;4.00;99.90;;;;;;5053905;28;20426;-68
2022/12/10 02:39:22;;;;;;;10.82;8.07;;;3.90;99.90;;;;;;5054717;28;20036;-68
2022/12/10 02:41:52;;;;;;;9.75;7.88;;;3.90;99.90;;;;;;5054541;28;20032;-68
2022/12/10 02:44:19;;;;;;;11.73;8.50;;;3.90;99.90;;;;;;5054800;28;20031;-67
2022/12/10 02:46:47;;;;;;;10.30;7.72;;;3.90;99.90;;;;;;5054189;28;20488;-68
2022/12/10 02:49:16;;;;;;;14.85;8.65;;;3.90;99.90;;;;;;5054199;28;20095;-67
2022/12/10 02:51:41;;;;;;;11.25;8.13;;;3.90;99.90;;;;;;5054280;28;20037;-68
2022/12/10 02:54:40;;;;;;;10.85;7.65;;;3.90;99.90;;;;;;5054647;28;20350;-67
2022/12/10 02:57:22;;;;;;;9.90;7.72;;;3.90;99.90;;;;;;5054395;28;20028;-68
2022/12/10 03:00:01;;;;;;;9.80;7.30;;;4.00;99.90;;;;;;5054012;28;20048;-67
2022/12/10 03:02:56;;;;;;;12.82;9.25;;;3.90;99.90;;;;;;5054172;28;20020;-67
2022/12/10 03:05:22;;;;;;;10.48;8.35;;;3.90;99.90;;;;;;5054441;28;20142;-67
2022/12/10 03:08:02;;;;;;;11.00;8.57;;;3.90;99.90;;;;;;5053595;28;20556;-67
2022/12/10 03:10:45;;;;;;;12.10;8.93;;;3.90;99.90;;;;;;5054186;28;20029;-67
2022/12/10 03:13:14;;;;;;;11.20;8.65;;;3.90;99.90;;;;;;5054236;28;20345;-67
2022/12/10 03:15:42;;;;;;;12.05;8.73;;;4.00;99.90;;;;;;5053330;28;20036;-68
2022/12/10 03:18:12;;;;;;;11.55;8.88;;;4.00;99.90;;;;;;5053720;28;20028;-67
2022/12/10 03:20:42;;;;;;;11.35;8.68;;;4.00;99.90;;;;;;5052639;28;20044;-67
2022/12/10 03:23:12;;;;;;;12.25;8.98;;;3.90;99.90;;;;;;5054068;28;20036;-67
2022/12/10 03:25:38;;;;;;;10.13;8.65;;;3.90;99.90;;;;;;5053832;28;20480;-67
2022/12/10 03:28:04;;;;;;;12.77;8.48;;;3.90;99.90;;;;;;5053510;28;20021;-67
2022/12/10 03:30:33;;;;;;;11.88;9.32;;;4.00;99.90;;;;;;5051447;28;20032;-68
2022/12/10 03:32:59;;;;;;;13.98;9.48;;;4.00;99.90;;;;;;5052954;28;20114;-68
2022/12/10 03:35:25;;;;;;;12.25;9.27;;;4.00;99.90;;;;;;5053875;28;20025;-69
2022/12/10 03:37:50;;;;;;;14.32;9.25;;;4.00;99.90;;;;;;5053130;28;20033;-68
2022/12/10 03:40:20;;;;;;;12.38;8.93;;;4.00;99.90;;;;;;5053351;28;20029;-68
2022/12/10 03:42:46;;;;;;;15.18;9.98;;;4.10;99.90;;;;;;5051790;28;20519;-68
2022/12/10 03:45:11;;;;;;;12.80;9.82;;;4.00;99.90;;;;;;5053852;28;20032;-68
2022/12/10 03:47:37;;;;;;;12.68;9.90;;;4.00;99.90;;;;;;5053605;28;20029;-68
2022/12/10 03:50:03;;;;;;;13.80;10.20;;;4.00;99.90;;;;;;5053086;28;20355;-68
2022/12/10 03:52:29;;;;;;;12.57;9.90;;;4.00;99.90;;;;;;5053399;28;20033;-68
2022/12/10 03:54:54;;;;;;;13.60;10.65;;;4.10;99.90;;;;;;5052556;28;20439;-68
2022/12/10 03:57:21;;;;;;;15.02;11.00;;;4.10;99.90;;;;;;5053427;28;20046;-68
2022/12/10 03:59:47;;;;;;;13.95;10.55;;;4.00;99.90;;;;;;5052344;28;20118;-68
2022/12/10 04:02:12;;;;;;;15.75;10.98;;;4.00;99.90;;;;;;5052794;28;20056;-68
2022/12/10 04:04:38;;;;;;;14.32;10.55;;;4.00;99.90;;;;;;5052938;28;20408;-68
2022/12/10 04:07:03;;;;;;;13.95;10.55;;;4.00;99.90;;;;;;5052600;28;20029;-68
2022/12/10 04:09:29;;;;;;;16.45;10.88;;;4.00;99.90;;;;;;5052733;28;20036;-68
2022/12/10 04:11:59;;;;;;;13.77;10.05;;;4.00;99.90;;;;;;5051587;28;20025;-68
2022/12/10 04:17:10;;;;;;;13.18;9.95;;;4.00;99.90;;;;;;5053028;28;20111;-67
2022/12/10 04:19:36;;;;;;;14.32;10.00;;;4.00;99.90;;;;;;5052879;28;20080;-68
2022/12/10 04:27:37;;;;;;;16.70;11.73;;;4.00;99.90;;;;;;5051871;28;20040;-68
2022/12/10 04:30:04;;;;;;;12.88;9.65;;;4.00;99.90;;;;;;5051631;28;20033;-68
2022/12/10 04:32:30;;;;;;;15.32;11.27;;;4.00;99.90;;;;;;5051669;28;20037;-67
2022/12/10 04:34:57;;;;;;;15.88;10.90;;;4.00;99.90;;;;;;5048015;28;20048;-68
2022/12/10 04:37:24;;;;;;;14.00;9.98;;;4.00;99.90;;;;;;5050520;28;20072;-67
2022/12/10 04:39:50;;;;;;;15.98;10.60;;;4.00;99.90;;;;;;5051696;28;20138;-68
2022/12/10 04:42:17;;;;;;;15.10;10.63;;;4.00;99.90;;;;;;5052152;28;20025;-68
2022/12/10 04:44:43;;;;;;;16.85;11.77;;;4.00;99.90;;;;;;5050748;28;20032;-67
2022/12/10 04:47:10;;;;;;;15.13;11.18;;;4.00;99.90;;;;;;5051859;28;20400;-68
2022/12/10 04:49:36;;;;;;;17.02;11.73;;;4.00;99.90;;;;;;5052022;28;20106;-66
2022/12/10 04:52:02;;;;;;;15.02;11.02;;;4.00;99.90;;;;;;5051625;28;20021;-68
2022/12/10 04:54:28;;;;;;;16.17;11.55;;;4.00;99.90;;;;;;5051791;28;20033;-68
2022/12/10 04:56:54;;;;;;;16.77;11.85;;;4.00;99.90;;;;;;5051613;28;20115;-68
2022/12/10 04:59:20;;;;;;;16.27;11.45;;;4.00;99.90;;;;;;5051978;28;20478;-68
2022/12/10 05:01:46;;;;;;;17.67;11.80;;;4.00;99.90;;;;;;5051966;28;20023;-68
2022/12/10 05:04:15;;;;;;;16.02;11.63;;;4.00;99.90;;;;;;5051678;28;20523;-67
2022/12/10 05:06:41;;;;;;;16.85;12.70;;;4.00;99.90;;;;;;5051949;28;20029;-68
2022/12/10 05:09:07;;;;;;;17.48;11.88;;;4.00;99.90;;;;;;5051733;28;20044;-68
2022/12/10 05:11:34;;;;;;;18.60;12.45;;;4.00;99.90;;;;;;5052047;28;20040;-67
2022/12/10 05:14:00;;;;;;;17.40;11.75;;;4.00;99.90;;;;;;5051420;28;20043;-68
2022/12/10 05:16:28;;;;;;;20.85;13.50;;;4.00;99.90;;;;;;5051930;28;20442;-68
2022/12/10 05:18:55;;;;;;;20.70;13.68;;;4.00;99.90;;;;;;5051479;28;20110;-68
2022/12/10 05:21:22;;;;;;;18.35;12.50;;;4.00;99.90;;;;;;5051572;28;20029;-68
2022/12/10 05:23:50;;;;;;;17.83;12.93;;;4.00;99.90;;;;;;5051030;28;20017;-68
2022/12/10 05:26:17;;;;;;;19.50;13.57;;;4.00;99.90;;;;;;5051781;28;20033;-68
2022/12/10 05:28:47;;;;;;;19.88;13.30;;;4.00;99.90;;;;;;5051825;28;20072;-68
2022/12/10 05:31:19;;;;;;;19.17;13.88;;;4.00;99.90;;;;;;5049894;28;20029;-68
2022/12/10 05:33:46;;;;;;;21.45;13.82;;;4.00;99.90;;;;;;5051449;28;20033;-68
2022/12/10 05:36:13;;;;;;;19.48;13.43;;;4.00;99.90;;;;;;5051115;28;20053;-68
2022/12/10 05:38:40;;;;;;;19.08;13.88;;;4.00;99.90;;;;;;5051671;28;20167;-68
2022/12/10 05:41:17;;;;;;;17.92;12.90;;;4.00;99.90;;;;;;5050739;28;20036;-68
2022/12/10 05:43:43;;;;;;;20.95;14.15;;;4.10;99.90;;;;;;5051850;28;20032;-67
2022/12/10 05:46:14;;;;;;;21.90;13.57;;;4.10;99.90;;;;;;5051368;28;20025;-67
2022/12/10 05:48:40;;;;;;;19.45;13.07;;;4.10;99.90;;;;;;5051571;28;20079;-68
2022/12/10 05:51:08;;;;;;;19.05;13.30;;;4.10;99.90;;;;;;5051126;28;20032;-68
2022/12/10 05:53:35;;;;;;;16.92;12.20;;;4.10;99.90;;;;;;5050333;28;20033;-68
2022/12/10 05:56:02;;;;;;;19.83;13.63;;;4.00;99.90;;;;;;5050880;28;20029;-68
2022/12/10 05:58:29;;;;;;;20.67;13.75;;;4.00;99.90;;;;;;5051714;28;20059;-67
2022/12/10 06:00:55;;;;;;;19.25;13.75;;;4.00;99.90;;;;;;5051077;28;20040;-66
2022/12/10 06:03:21;;;;;;;22.15;14.20;;;4.00;99.90;;;;;;5051557;28;20025;-66
2022/12/10 06:05:47;;;;;;;20.60;13.82;;;4.00;99.90;;;;;;5051495;28;20120;-66
2022/12/10 06:08:12;;;;;;;21.00;14.52;;;4.00;99.90;;;;;;5050973;28;20021;-67
2022/12/10 06:10:38;;;;;;;19.58;13.57;;;4.00;99.90;;;;;;5051160;28;20033;-67
2022/12/10 06:13:04;;;;;;;22.45;14.45;;;4.10;99.90;;;;;;5051017;28;20424;-67
2022/12/10 06:15:31;;;;;;;21.83;14.77;;;4.10;99.90;;;;;;5051702;28;20024;-67
2022/12/10 06:17:57;;;;;;;22.65;14.52;;;4.10;99.90;;;;;;5051244;28;20116;-68
2022/12/10 06:20:24;;;;;;;21.55;14.07;;;4.00;99.90;;;;;;5051182;28;20535;-67
2022/12/10 06:22:49;;;;;;;21.75;14.25;;;4.00;99.90;;;;;;5051556;28;20021;-67
2022/12/10 06:25:15;;;;;;;23.63;14.20;;;4.00;99.90;;;;;;5054237;28;20023;-67
2022/12/10 06:27:41;;;;;;;21.02;13.68;;;4.00;99.90;;;;;;5054781;28;20033;-67
2022/12/10 06:30:07;;;;;;;20.50;13.45;;;4.00;99.90;;;;;;5054408;28;20036;-67
2022/12/10 06:32:33;;;;;;;22.10;14.73;;;4.00;99.90;;;;;;5054842;28;20032;-67
2022/12/10 06:34:58;;;;;;;23.65;15.65;;;4.00;99.90;;;;;;5054674;28;20052;-66
2022/12/10 06:37:24;;;;;;;21.02;14.48;;;4.00;99.90;;;;;;5054717;28;20045;-67
2022/12/10 06:39:52;;;;;;;22.58;14.95;;;4.00;99.90;;;;;;5054960;28;20446;-67
2022/12/10 06:42:20;;;;;;;21.90;14.32;;;4.10;99.90;;;;;;5053920;28;20111;-66
2022/12/10 06:44:45;;;;;;;22.17;14.55;;;4.00;99.90;;;;;;5053632;28;20382;-67
2022/12/10 06:47:11;;;;;;;23.23;15.27;;;4.00;99.90;;;;;;5053891;28;20029;-67
2022/12/10 06:49:37;;;;;;;22.60;15.05;;;4.00;99.90;;;;;;5054705;28;20086;-67
2022/12/10 06:52:03;;;;;;;21.20;14.80;;;4.00;99.90;;;;;;5054062;28;20446;-67
2022/12/10 06:54:29;;;;;;;26.13;16.25;;;4.00;99.90;;;;;;5053180;28;20025;-68
2022/12/10 06:56:55;;;;;;;23.25;15.32;;;4.00;99.90;;;;;;5053472;28;20496;-67
2022/12/10 06:59:21;;;;;;;25.35;16.40;;;4.00;99.90;;;;;;5054103;28;20036;-67
2022/12/10 07:01:47;;;;;;;25.58;15.80;;;3.90;99.90;;;;;;5054321;28;20029;-67
2022/12/10 07:04:13;;;;;;;25.40;16.10;;;4.00;99.90;;;;;;5054379;28;20029;-67
2022/12/10 07:06:39;;;;;;;24.70;15.77;;;4.00;99.90;;;;;;5054482;28;20401;-67
2022/12/10 07:09:05;;;;;;;25.90;16.67;;;4.00;99.90;;;;;;5053868;28;20025;-68
2022/12/10 07:11:31;;;;;;;25.38;15.88;;;4.00;99.90;;;;;;5054343;28;20097;-67
2022/12/10 07:13:58;;;;;;;24.33;15.65;;;4.00;99.90;;;;;;5054388;28;20032;-67
2022/12/10 07:16:27;;;;;;;24.63;16.50;;;4.00;99.90;;;;;;5053878;28;20027;-67
2022/12/10 07:18:54;;;;;;;24.23;15.60;;;4.00;99.90;;;;;;5054643;28;20373;-67
2022/12/10 07:21:19;;;;;;;26.17;16.60;;;4.00;99.90;;;;;;5053692;28;20036;-67
2022/12/10 07:23:45;;;;;;;27.75;16.80;;;4.00;99.90;;;;;;5053243;28;20116;-67
2022/12/10 07:26:11;;;;;;;25.30;16.30;;;4.00;99.90;;;;;;5053255;28;20079;-67
2022/12/10 07:28:37;;;;;;;26.55;15.82;;;3.90;99.90;;;;;;5053786;28;20029;-67
2022/12/10 07:31:04;;;;;;;25.33;16.58;;;3.90;99.90;;;;;;5053313;28;20393;-67
2022/12/10 07:33:30;;;;;;;26.60;17.33;;;3.90;99.90;;;;;;5054103;28;20095;-67
2022/12/10 07:35:56;;;;;;;25.95;16.33;;;3.90;99.90;;;;;;5052401;28;20048;-67
2022/12/10 07:38:23;;;;;;;27.38;16.95;;;3.90;99.90;;;;;;5062917;28;20377;-66
2022/12/10 07:40:49;;;;;;;26.38;16.90;;;3.90;99.90;;;;;;5067251;28;20032;-67
2022/12/10 07:43:15;;;;;;;27.20;17.17;;;4.00;99.90;;;;;;5052730;28;20532;-67
2022/12/10 07:45:41;;;;;;;34.83;17.17;;;4.00;99.90;;;;;;5053434;28;20029;-67
2022/12/10 07:48:06;;;;;;;31.95;19.40;;;4.00;99.90;;;;;;5052610;28;20035;-67
2022/12/10 07:50:32;;;;;;;30.55;18.25;;;4.00;99.90;;;;;;5053283;28;20033;-67
2022/12/10 07:52:58;;;;;;;30.48;18.15;;;4.10;99.90;;;;;;5050866;28;20021;-66
2022/12/10 07:55:24;;;;;;;31.42;18.98;;;4.00;99.90;;;;;;5052048;28;20020;-66
2022/12/10 07:57:49;;;;;;;26.88;16.92;;;4.00;99.90;;;;;;5052831;28;20041;-68
2022/12/10 08:00:15;;;;;;;29.20;17.85;;;4.00;99.90;;;;;;5052212;28;20033;-69
2022/12/10 08:02:41;;;;;;;30.40;18.00;;;4.00;99.90;;;;;;5053151;28;20071;-68
2022/12/10 08:05:07;;;;;;;26.83;17.17;;;4.00;99.90;;;;;;5052460;28;20028;-69
2022/12/10 08:07:33;;;;;;;27.88;16.92;;;4.10;99.90;;;;;;5053329;28;20063;-69
2022/12/10 08:09:58;;;;;;;28.92;18.00;;;4.10;99.90;;;;;;5053168;28;20037;-69
2022/12/10 08:12:24;;;;;;;29.38;17.50;;;4.00;99.90;;;;;;5052716;28;20025;-69
2022/12/10 08:14:50;;;;;;;28.63;17.88;;;4.00;99.90;;;;;;5052727;28;20453;-69
2022/12/10 08:17:15;;;;;;;28.08;19.20;;;4.00;99.90;;;;;;5052204;28;20450;-69
2022/12/10 08:19:41;;;;;;;28.33;18.67;;;4.00;99.90;;;;;;5052811;28;20036;-69
2022/12/10 08:22:07;;;;;;;25.83;16.88;;;4.00;99.90;;;;;;5052152;28;20024;-70
2022/12/10 08:24:32;;;;;;;29.35;17.73;;;4.00;99.90;;;;;;5052654;28;20073;-69
2022/12/10 08:26:58;;;;;;;29.33;17.90;;;4.00;99.90;;;;;;5052385;28;20025;-69
2022/12/10 08:29:23;;;;;;;31.98;18.90;;;4.00;99.90;;;;;;5051879;28;20033;-69
2022/12/10 08:31:49;;;;;;;27.77;17.42;;;4.10;99.90;;;;;;5052257;28;20029;-69
2022/12/10 08:34:17;;;;;;;30.80;17.98;;;4.10;99.90;;;;;;5050363;28;20037;-69
2022/12/10 08:36:43;;;;;;;29.42;19.33;;;4.00;99.90;;;;;;5052064;28;20041;-69
2022/12/10 08:39:16;;;;;;;28.63;18.80;;;4.10;99.90;;;;;;5051839;28;20036;-69
2022/12/10 08:41:43;;;;;;;35.53;17.05;;;4.10;99.90;;;;;;5052251;28;20032;-69
2022/12/10 08:44:09;;;;;;;31.40;19.33;;;4.00;99.90;;;;;;5051652;28;20025;-70
2022/12/10 08:46:35;;;;;;;30.50;18.30;;;4.00;99.90;;;;;;5052052;28;20100;-68
2022/12/10 08:49:00;;;;;;;30.48;18.20;;;4.10;99.90;;;;;;5052062;28;20101;-68
2022/12/10 08:51:26;;;;;;;28.65;17.98;;;4.10;99.90;;;;;;5051675;28;20037;-71
2022/12/10 08:53:52;;;;;;;30.08;18.02;;;4.10;99.90;;;;;;5051903;28;20032;-69
2022/12/10 08:56:18;;;;;;;30.67;18.13;;;4.20;99.90;;;;;;5051408;28;20029;-69
2022/12/10 08:58:43;;;;;;;27.45;18.38;;;4.20;99.90;;;;;;5051992;28;20029;-69
2022/12/10 09:01:16;;;;;;;32.90;19.00;;;4.20;99.90;;;;;;5051780;28;20029;-70
2022/12/10 09:03:42;;;;;;;35.22;19.35;;;4.20;99.90;;;;;;5052150;28;20025;-69
2022/12/10 09:06:10;;;;;;;33.42;18.92;;;4.20;99.90;;;;;;5051974;28;20036;-70
2022/12/10 09:08:36;;;;;;;32.50;18.67;;;4.20;99.90;;;;;;5052093;28;20466;-69
2022/12/10 09:11:08;;;;;;;28.35;18.42;;;4.20;99.90;;;;;;5052055;28;20036;-69
2022/12/10 09:13:33;;;;;;;29.88;17.50;;;4.20;99.90;;;;;;5052214;28;20029;-69
2022/12/10 09:15:59;;;;;;;28.85;17.30;;;4.20;99.90;;;;;;5050968;28;20167;-68
2022/12/10 09:18:25;;;;;;;31.38;18.27;;;4.20;99.90;;;;;;5051656;28;20478;-70
2022/12/10 09:20:50;;;;;;;29.60;18.42;;;4.20;99.90;;;;;;5051774;28;20032;-68
2022/12/10 09:23:16;;;;;;;30.70;18.55;;;4.20;99.90;;;;;;5051416;28;20021;-69
2022/12/10 09:25:42;;;;;;;28.73;17.45;;;4.20;99.90;;;;;;5050456;28;20031;-69
2022/12/10 09:28:07;;;;;;;27.98;18.00;;;4.30;99.90;;;;;;5052175;28;20372;-69
2022/12/10 09:30:33;;;;;;;25.38;15.77;;;4.20;99.90;;;;;;5051776;28;20047;-69
2022/12/10 09:32:59;;;;;;;24.67;16.75;;;4.20;99.90;;;;;;5051893;28;20028;-69
2022/12/10 09:35:24;;;;;;;26.42;17.63;;;4.20;99.90;;;;;;5050897;28;20108;-69
2022/12/10 09:37:50;;;;;;;28.23;17.60;;;4.20;99.90;;;;;;5051660;28;20060;-69
2022/12/10 09:40:18;;;;;;;26.70;17.77;;;4.30;99.90;;;;;;5051202;28;20033;-70
2022/12/10 09:42:58;;;;;;;27.67;17.27;;;4.30;99.90;;;;;;5051515;28;20032;-68
2022/12/10 09:45:39;;;;;;;27.67;16.88;;;4.20;99.90;;;;;;5050861;28;20013;-68
2022/12/10 09:48:32;;;;;;;29.80;17.83;;;4.30;99.90;;;;;;5031775;28;20466;-68
2022/12/10 09:51:10;;;;;;;27.38;16.77;;;4.30;99.90;;;;;;5031490;28;20073;-69
2022/12/10 09:53:38;;;;;;;28.40;18.17;;;4.30;99.90;;;;;;5031642;28;20036;-70
2022/12/10 09:56:05;;;;;;;27.50;17.52;;;4.30;99.90;;;;;;5031398;28;20025;-69
2022/12/10 09:58:30;;;;;;;27.25;17.63;;;4.30;99.90;;;;;;5031275;28;20042;-70
2022/12/10 10:01:02;;;;;;;28.08;17.42;;;4.30;99.90;;;;;;5046137;28;20122;-69
2022/12/10 10:03:34;;;;;;;27.23;16.63;;;4.30;99.90;;;;;;5054816;28;20159;-69
2022/12/10 10:06:03;;;;;;;27.65;16.55;;;4.30;99.90;;;;;;5055210;28;20029;-69
2022/12/10 10:08:33;;;;;;;26.98;17.33;;;4.30;99.90;;;;;;5054621;28;20025;-69
2022/12/10 10:11:00;;;;;;;27.03;16.70;;;4.30;99.90;;;;;;5055130;28;20110;-69
2022/12/10 10:13:38;;;;;;;26.63;16.55;;;4.30;99.90;;;;;;5054530;28;20282;-72
2022/12/10 10:16:39;;;;;;;27.73;17.15;;;4.30;99.90;;;;;;5054873;28;20424;-69
2022/12/10 10:19:14;;;;;;;27.90;17.40;;;4.30;99.90;;;;;;5050867;28;20361;-68
2022/12/10 10:21:44;;;;;;;27.13;17.25;;;4.40;99.90;;;;;;5054999;28;20036;-68
2022/12/10 10:24:15;;;;;;;27.30;16.50;;;4.40;99.90;;;;;;5055054;28;20430;-69
2022/12/10 10:26:41;;;;;;;27.27;17.55;;;4.50;99.90;;;;;;5054876;28;20433;-69
2022/12/10 10:29:10;;;;;;;25.80;16.10;;;4.50;99.90;;;;;;5054528;28;20061;-69
2022/12/10 10:31:40;;;;;;;26.05;16.20;;;4.50;99.90;;;;;;5054129;28;20112;-69
2022/12/10 10:34:19;;;;;;;25.50;16.70;;;4.50;99.90;;;;;;5054784;28;20124;-69
2022/12/10 10:36:45;;;;;;;26.88;16.60;;;4.50;99.90;;;;;;5054825;28;20134;-69
2022/12/10 10:39:26;;;;;;;28.27;17.98;;;4.50;99.90;;;;;;5053056;28;20035;-68
2022/12/10 10:41:54;;;;;;;29.98;17.85;;;4.50;99.90;;;;;;5054911;28;20029;-69
2022/12/10 10:44:24;;;;;;;30.13;18.23;;;4.50;99.90;;;;;;5054468;28;20048;-69
2022/12/10 10:46:52;;;;;;;28.85;17.25;;;4.50;99.90;;;;;;5054608;28;20125;-70
2022/12/10 10:49:31;;;;;;;29.60;18.15;;;4.50;99.90;;;;;;5054341;28;20028;-69
2022/12/10 10:52:05;;;;;;;31.58;19.17;;;4.50;99.90;;;;;;5054514;28;20351;-69
2022/12/10 10:54:38;;;;;;;29.77;19.50;;;4.50;99.90;;;;;;5054299;28;20033;-69
2022/12/10 10:57:36;;;;;;;30.80;19.10;;;4.50;99.90;;;;;;5054850;28;20025;-69
2022/12/10 11:00:22;;;;;;;30.50;18.40;;;4.40;99.90;;;;;;5049501;28;20385;-69
2022/12/10 11:02:47;;;;;;;31.45;19.42;;;4.50;99.90;;;;;;5054418;28;20120;-70
2022/12/10 11:05:29;;;;;;;29.33;18.10;;;4.50;99.90;;;;;;5055495;28;20040;-68
2022/12/10 11:08:01;;;;;;;26.52;17.52;;;4.60;99.90;;;;;;5055304;28;20049;-68
2022/12/10 11:10:28;;;;;;;28.85;18.33;;;4.60;99.90;;;;;;5054891;28;20041;-69
2022/12/10 11:13:04;;;;;;;29.13;17.88;;;4.70;99.90;;;;;;5055384;28;20028;-68
2022/12/10 11:15:32;;;;;;;31.35;18.25;;;4.60;99.90;;;;;;5055337;28;20032;-68
2022/12/10 11:17:59;;;;;;;27.23;17.13;;;4.70;99.90;;;;;;5055975;28;20036;-69
2022/12/10 11:20:31;;;;;;;29.25;18.02;;;4.70;99.90;;;;;;5055914;28;20033;-69
2022/12/10 11:22:59;;;;;;;27.40;17.83;;;4.70;99.90;;;;;;5054979;28;20029;-69
2022/12/10 11:25:45;;;;;;;31.83;19.00;;;4.70;99.90;;;;;;5054158;28;20407;-70
2022/12/10 11:28:32;;;;;;;29.52;19.02;;;4.70;99.90;;;;;;5054282;28;20059;-69
2022/12/10 11:31:56;;;;;;;31.13;18.80;;;4.70;99.90;;;;;;5055045;28;20112;-69
2022/12/10 11:34:58;;;;;;;29.98;18.50;;;4.80;99.90;;;;;;5029143;28;20487;-69
2022/12/10 11:37:36;;;;;;;29.90;18.80;;;4.70;99.90;;;;;;5034228;28;20115;-69
2022/12/10 11:40:23;;;;;;;32.13;19.63;;;4.70;99.90;;;;;;5032669;28;20116;-69
2022/12/10 11:42:59;;;;;;;32.35;19.55;;;4.70;99.90;;;;;;5012273;28;20030;-69
2022/12/10 11:45:48;;;;;;;33.28;20.05;;;4.60;99.90;;;;;;5011267;28;20033;-69
2022/12/10 11:48:47;;;;;;;30.90;19.27;;;4.70;99.90;;;;;;5011827;28;20061;-69
2022/12/10 11:51:27;;;;;;;34.45;21.77;;;4.70;99.90;;;;;;5011380;28;20046;-69
2022/12/10 11:54:28;;;;;;;35.97;21.25;;;4.70;99.90;;;;;;5011678;28;20026;-69
2022/12/10 11:57:08;;;;;;;36.08;20.05;;;4.70;99.90;;;;;;4995501;28;20387;-69
2022/12/10 11:59:54;;;;;;;30.08;19.38;;;4.70;99.90;;;;;;5011734;28;20105;-68
2022/12/10 12:02:46;;;;;;;33.13;20.52;;;4.70;99.90;;;;;;5012511;28;20030;-68
2022/12/10 12:05:36;;;;;;;33.45;21.02;;;4.80;99.90;;;;;;5022523;28;20045;-69
2022/12/10 12:08:17;;;;;;;31.25;19.05;;;4.70;99.90;;;;;;5035693;28;20030;-69
2022/12/10 12:11:04;;;;;;;31.40;19.90;;;4.80;99.90;;;;;;5035110;28;20044;-68
2022/12/10 12:13:55;;;;;;;33.17;20.10;;;4.70;99.90;;;;;;5034824;28;20033;-69
2022/12/10 12:16:47;;;;;;;33.60;19.00;;;4.70;99.90;;;;;;5035080;28;20032;-72
2022/12/10 12:19:31;;;;;;;;;;;4.60;99.90;;;;;;5035128;28;20068;-69
2022/12/10 12:22:06;;;;;;;27.95;17.67;;;4.60;99.90;;;;;;5033541;28;20357;-69
2022/12/10 12:24:37;;;;;;;34.17;20.05;;;4.60;99.90;;;;;;5034395;28;20076;-70
2022/12/10 12:27:15;;;;;;;;;;;4.70;99.90;;;;;;5036542;28;20448;-69
2022/12/10 12:30:03;;;;;;;31.98;19.50;;;4.60;99.90;;;;;;5035055;28;19917;-69
2022/12/10 12:32:59;;;;;;;37.30;20.33;;;4.60;99.90;;;;;;5035644;28;20394;-70
2022/12/10 12:35:47;;;;;;;35.97;21.30;;;4.60;99.90;;;;;;5030872;28;20544;-69
2022/12/10 12:38:31;;;;;;;35.10;20.52;;;4.70;99.90;;;;;;5035039;28;20039;-68
2022/12/10 12:41:08;;;;;;;38.65;21.88;;;4.60;99.90;;;;;;5034914;28;20026;-69
2022/12/10 12:43:49;;;;;;;34.65;20.05;;;4.60;99.90;;;;;;5034558;28;20036;-69
2022/12/10 12:46:31;;;;;;;35.05;20.63;;;4.60;99.90;;;;;;5033256;28;20032;-69
2022/12/10 12:49:02;;;;;;;35.67;21.83;;;4.60;99.90;;;;;;5033121;28;20034;-69
2022/12/10 12:52:18;;;;;;;37.78;22.42;;;4.60;99.90;;;;;;5032380;28;20033;-68
2022/12/10 12:54:44;;;;;;;39.05;21.98;;;4.60;99.90;;;;;;5023100;28;20038;-68
2022/12/10 12:57:41;;;;;;;33.45;20.30;;;4.60;99.90;;;;;;5032762;28;20047;-69
2022/12/10 13:00:17;;;;;;;35.97;21.20;;;4.60;99.90;;;;;;5029563;28;20095;-69
2022/12/10 13:03:18;;;;;;;34.40;20.73;;;4.60;99.90;;;;;;5032024;28;20450;-69
2022/12/10 13:05:45;;;;;;;30.77;19.48;;;4.70;99.90;;;;;;5009967;28;20493;-68
2022/12/10 13:08:20;;;;;;;35.72;20.55;;;4.70;99.90;;;;;;5027631;28;20425;-68